createdAt,value
2023-02-07T00:02:07.382Z,28.20
2023-02-07T00:07:09.936Z,25.80
2023-02-07T00:12:12.444Z,24.90
2023-02-07T00:17:15.054Z,21.80
2023-02-07T00:22:17.580Z,16.50
2023-02-07T00:27:20.321Z,26.70
2023-02-07T00:32:22.899Z,22.10
2023-02-07T00:37:27.919Z,21.60
2023-02-07T00:42:30.847Z,20.00
2023-02-07T00:47:33.388Z,11.10
2023-02-07T00:52:35.952Z,19.00
2023-02-07T00:57:38.549Z,16.40
2023-02-07T01:02:41.113Z,16.50
2023-02-07T01:07:43.718Z,16.50
2023-02-07T01:12:46.558Z,13.50
2023-02-07T01:17:49.146Z,15.60
2023-02-07T01:22:51.944Z,13.80
2023-02-07T01:27:54.647Z,11.30
2023-02-07T01:32:59.353Z,10.70
2023-02-07T01:38:02.779Z,11.50
2023-02-07T01:43:05.554Z,12.80
2023-02-07T01:48:13.288Z,11.40
2023-02-07T01:53:22.317Z,12.10
2023-02-07T01:58:25.724Z,12.30
2023-02-07T02:03:28.329Z,14.70
2023-02-07T02:08:30.959Z,14.10
2023-02-07T02:13:45.100Z,10.10
2023-02-07T02:18:58.690Z,13.80
2023-02-07T02:24:03.292Z,12.10
2023-02-07T02:29:05.922Z,11.60
2023-02-07T02:34:19.843Z,11.90
2023-02-07T02:39:27.118Z,12.80
2023-02-07T02:44:35.564Z,11.80
2023-02-07T02:49:39.644Z,10.90
2023-02-07T02:54:42.365Z,14.30
2023-02-07T02:59:49.832Z,12.70
2023-02-07T03:04:57.339Z,11.50
2023-02-07T03:09:59.911Z,10.80
2023-02-07T03:15:12.590Z,12.50
2023-02-07T03:20:30.464Z,6.90
2023-02-07T03:25:33.529Z,12.10
2023-02-07T03:30:39.239Z,10.50
2023-02-07T03:35:52.468Z,10.30
2023-02-07T03:41:00.957Z,8.80
2023-02-07T03:46:03.654Z,17.80
2023-02-07T03:51:06.454Z,10.40
2023-02-07T03:56:09.066Z,10.30
2023-02-07T04:01:11.831Z,13.60
2023-02-07T04:06:14.487Z,11.00
2023-02-07T04:11:17.085Z,9.00
2023-02-07T04:16:20.899Z,12.60
2023-02-07T04:21:23.596Z,12.10
2023-02-07T04:26:26.233Z,12.80
2023-02-07T04:31:28.923Z,14.10
2023-02-07T04:36:31.915Z,11.80
2023-02-07T04:41:34.578Z,12.70
2023-02-07T04:46:37.262Z,8.30
2023-02-07T04:51:39.898Z,9.50
2023-02-07T04:56:42.544Z,14.40
2023-02-07T05:01:45.176Z,10.40
2023-02-07T05:06:47.921Z,8.80
2023-02-07T05:11:50.588Z,11.60
2023-02-07T05:16:53.220Z,10.20
2023-02-07T05:21:55.885Z,17.70
2023-02-07T05:27:01.480Z,10.60
2023-02-07T05:32:07.213Z,10.50
2023-02-07T05:37:09.894Z,8.70
2023-02-07T05:42:12.572Z,9.20
2023-02-07T05:47:15.214Z,10.50
2023-02-07T05:52:17.858Z,7.70
2023-02-07T05:57:23.233Z,12.20
2023-02-07T06:02:26.013Z,7.00
2023-02-07T06:07:28.665Z,8.00
2023-02-07T06:12:32.431Z,4.40
2023-02-07T06:17:35.264Z,11.90
2023-02-07T06:22:37.928Z,9.80
2023-02-07T06:27:41.347Z,8.90
2023-02-07T06:32:43.950Z,5.60
2023-02-07T06:37:46.800Z,8.00
2023-02-07T06:42:51.806Z,6.90
2023-02-07T06:47:54.449Z,9.90
2023-02-07T06:53:01.907Z,8.40
2023-02-07T06:58:07.077Z,11.70
2023-02-07T07:03:14.455Z,14.20
2023-02-07T07:08:18.619Z,10.10
2023-02-07T07:13:21.322Z,9.80
2023-02-07T07:18:23.982Z,12.00
2023-02-07T07:23:26.577Z,5.90
2023-02-07T07:28:29.649Z,7.70
2023-02-07T07:33:32.768Z,6.60
2023-02-07T07:43:40.781Z,7.10
2023-02-07T07:48:43.431Z,8.50
2023-02-07T07:53:46.164Z,9.00
2023-02-07T07:58:48.861Z,9.00
2023-02-07T08:03:51.546Z,8.00
2023-02-07T08:08:54.203Z,10.30
2023-02-07T08:13:56.831Z,11.20
2023-02-07T08:18:59.470Z,11.50
2023-02-07T08:24:02.086Z,14.20
2023-02-07T08:29:05.086Z,8.10
2023-02-07T08:34:07.726Z,9.80
2023-02-07T08:39:10.506Z,9.60
2023-02-07T08:44:13.353Z,10.50
2023-02-07T08:49:16.056Z,6.30
2023-02-07T08:54:22.151Z,7.40
2023-02-07T08:59:25.092Z,11.20
2023-02-07T09:04:27.818Z,8.30
2023-02-07T09:09:32.721Z,7.30
2023-02-07T09:14:35.459Z,7.70
2023-02-07T09:19:38.154Z,8.30
2023-02-07T09:24:40.763Z,7.30
2023-02-07T09:29:44.201Z,10.40
2023-02-07T09:34:50.080Z,9.30
2023-02-07T09:39:52.695Z,5.60
2023-02-07T09:45:08.698Z,8.90
2023-02-07T09:50:17.602Z,11.70
2023-02-07T09:55:27.565Z,5.90
2023-02-07T10:00:41.290Z,7.70
2023-02-07T10:06:18.538Z,10.50
2023-02-07T10:11:35.590Z,7.20
2023-02-07T10:21:47.483Z,7.10
2023-02-07T10:26:55.348Z,8.10
2023-02-07T10:32:04.164Z,7.70
2023-02-07T10:37:20.341Z,7.80
2023-02-07T10:42:23.927Z,9.50
2023-02-07T10:47:26.621Z,9.70
2023-02-07T10:52:37.347Z,6.90
2023-02-07T10:57:59.736Z,7.40
2023-02-07T11:03:06.796Z,6.50
2023-02-07T11:08:12.492Z,5.70
2023-02-07T11:13:29.274Z,6.90
2023-02-07T11:18:38.051Z,7.40
2023-02-07T11:23:44.628Z,8.50
2023-02-07T11:28:52.228Z,7.90
2023-02-07T11:33:55.128Z,11.10
2023-02-07T11:39:00.785Z,6.60
2023-02-07T11:44:17.549Z,7.60
2023-02-07T11:49:27.644Z,5.10
2023-02-07T11:54:32.172Z,11.70
2023-02-07T11:59:35.965Z,7.20
2023-02-07T12:04:41.354Z,6.70
2023-02-07T12:10:05.895Z,8.00
2023-02-07T12:15:18.901Z,9.90
2023-02-07T12:20:25.421Z,8.80
2023-02-07T12:25:39.245Z,8.00
2023-02-07T12:30:47.567Z,8.20
2023-02-07T12:36:02.831Z,6.80
2023-02-07T12:41:15.337Z,7.60
2023-02-07T12:46:30.673Z,5.10
2023-02-07T12:51:50.004Z,9.30
2023-02-07T12:56:54.885Z,9.50
2023-02-07T13:02:03.332Z,13.30
2023-02-07T13:07:16.090Z,12.10
2023-02-07T13:12:28.908Z,22.00
2023-02-07T13:17:44.478Z,36.40
2023-02-07T13:23:02.606Z,15.60
2023-02-07T13:28:13.667Z,14.60
2023-02-07T13:33:28.280Z,18.10
2023-02-07T13:38:36.228Z,18.20
2023-02-07T13:43:58.789Z,26.60
2023-02-07T13:49:25.724Z,17.50
2023-02-07T13:54:36.310Z,9.10
2023-02-07T13:59:39.362Z,20.60
2023-02-07T14:04:47.062Z,8.40
2023-02-07T14:09:50.135Z,27.70
2023-02-07T14:15:02.514Z,22.00
2023-02-07T14:20:06.238Z,24.10
2023-02-07T14:25:09.926Z,31.90
2023-02-07T14:30:12.510Z,39.30
2023-02-07T14:35:16.424Z,38.40
2023-02-07T14:40:24.660Z,26.60
2023-02-07T14:45:34.597Z,36.60
2023-02-07T14:50:37.700Z,32.20
2023-02-07T14:55:48.893Z,26.10
2023-02-07T15:00:56.263Z,34.90
2023-02-07T15:06:01.650Z,47.30
2023-02-07T15:11:07.177Z,34.20
2023-02-07T15:16:10.898Z,28.80
2023-02-07T15:21:19.994Z,26.20
2023-02-07T15:26:22.709Z,35.70
2023-02-07T15:31:25.654Z,47.00
2023-02-07T15:36:31.610Z,38.20
2023-02-07T15:41:34.832Z,35.00
2023-02-07T15:46:43.294Z,29.50
2023-02-07T15:51:45.945Z,37.80
2023-02-07T15:56:51.862Z,22.40
2023-02-07T16:01:58.057Z,21.40
2023-02-07T16:07:03.930Z,18.60
2023-02-07T16:12:12.314Z,24.20
2023-02-07T16:17:20.773Z,19.20
2023-02-07T16:22:28.782Z,26.80
2023-02-07T16:27:33.893Z,53.20
2023-02-07T16:32:36.497Z,45.70
2023-02-07T16:37:39.104Z,55.30
2023-02-07T16:42:42.965Z,59.90
2023-02-07T16:47:46.050Z,51.50
2023-02-07T16:52:50.460Z,55.00
2023-02-07T16:57:54.735Z,41.70
2023-02-07T17:02:57.937Z,54.30
2023-02-07T17:08:00.568Z,59.60
2023-02-07T17:13:03.169Z,55.50
2023-02-07T17:18:05.819Z,51.70
2023-02-07T17:23:08.471Z,63.90
2023-02-07T17:28:15.840Z,70.90
2023-02-07T17:33:18.503Z,52.70
2023-02-07T17:38:21.106Z,69.40
2023-02-07T17:43:23.754Z,77.20
2023-02-07T17:48:30.147Z,68.30
2023-02-07T17:58:37.998Z,76.80
2023-02-07T18:03:40.661Z,77.90
2023-02-07T18:08:44.879Z,73.10
2023-02-07T18:13:47.984Z,45.90
2023-02-07T18:18:52.327Z,61.50
2023-02-07T18:23:56.207Z,48.60
2023-02-07T18:28:58.907Z,40.40
2023-02-07T18:34:03.766Z,53.80
2023-02-07T18:39:07.405Z,55.70
2023-02-07T18:44:10.058Z,37.50
2023-02-07T18:49:13.842Z,38.60
2023-02-07T18:54:19.406Z,44.90
2023-02-07T18:59:23.849Z,38.30
2023-02-07T19:04:29.616Z,41.50
2023-02-07T19:09:32.693Z,52.20
2023-02-07T19:14:35.543Z,36.00
2023-02-07T19:19:41.606Z,31.20
2023-02-07T19:24:44.785Z,28.10
2023-02-07T19:29:47.668Z,28.40
2023-02-07T19:34:50.314Z,33.90
2023-02-07T19:39:56.034Z,34.20
2023-02-07T19:44:58.752Z,30.90
2023-02-07T19:50:01.398Z,35.00
2023-02-07T19:55:04.327Z,35.40
2023-02-07T20:00:10.544Z,30.40
2023-02-07T20:05:13.197Z,29.50
2023-02-07T20:10:15.843Z,51.70
2023-02-07T20:15:18.598Z,49.10
2023-02-07T20:20:21.196Z,57.90
2023-02-07T20:25:23.883Z,58.90
2023-02-07T20:30:27.200Z,45.70
2023-02-07T20:35:29.893Z,85.10
2023-02-07T20:40:32.651Z,48.30
2023-02-07T20:45:37.579Z,32.60
2023-02-07T20:50:41.013Z,25.40
2023-02-07T20:55:43.866Z,37.50
2023-02-07T21:00:46.559Z,37.10
2023-02-07T21:05:49.272Z,38.20
2023-02-07T21:10:51.892Z,35.40
2023-02-07T21:16:02.979Z,36.90
2023-02-07T21:21:08.818Z,39.30
2023-02-07T21:26:14.418Z,43.50
2023-02-07T21:31:20.877Z,39.80
2023-02-07T21:36:26.850Z,37.70
2023-02-07T21:41:29.619Z,34.70
2023-02-07T21:46:35.063Z,38.30
2023-02-07T21:51:37.681Z,29.10
2023-02-07T21:56:41.918Z,26.80
2023-02-07T22:01:46.095Z,40.10
2023-02-07T22:06:49.292Z,25.50
2023-02-07T22:11:52.103Z,14.20
2023-02-07T22:16:56.005Z,19.00
2023-02-07T22:21:58.952Z,20.60
2023-02-07T22:27:01.633Z,17.70
2023-02-07T22:32:04.515Z,17.10
2023-02-07T22:37:07.465Z,22.80
2023-02-07T22:42:10.047Z,12.50
2023-02-07T22:47:12.664Z,17.70
2023-02-07T22:52:15.252Z,24.60
2023-02-07T22:57:17.870Z,23.10
2023-02-07T23:02:20.651Z,16.20
2023-02-07T23:07:24.632Z,35.10
2023-02-07T23:12:28.173Z,43.00
2023-02-07T23:17:30.855Z,18.30
2023-02-07T23:22:37.456Z,17.70
2023-02-07T23:27:40.069Z,19.70
2023-02-07T23:32:42.718Z,13.50
2023-02-07T23:37:45.318Z,9.70
2023-02-07T23:42:47.913Z,10.70
2023-02-07T23:47:50.794Z,14.30
2023-02-07T23:52:53.399Z,16.70
2023-02-07T23:57:56.013Z,12.40
